Time;durP1;ratioP1;P1;durP2;ratioP2;P2;SDS_P1;SDS_P2;PMS_P1;PMS_P2;Temp;Humidity;BMP_temperature;BMP_pressure;BME280_temperature;BME280_humidity;BME280_pressure;Samples;Min_cycle;Max_cycle;Signal;HPM_P1;HPM_P2
2023/04/15 00:00:41;;;;;;;5.32;2.33;;;13.10;66.40;;;;;;5063044;28;20024;-80
2023/04/15 00:03:07;;;;;;;6.95;2.42;;;13.10;66.40;;;;;;5062977;28;20059;-80
2023/04/15 00:05:33;;;;;;;6.43;2.53;;;13.10;66.50;;;;;;5062409;28;20075;-79
2023/04/15 00:08:00;;;;;;;5.55;2.15;;;13.00;66.80;;;;;;5079545;28;20070;-80
2023/04/15 00:10:26;;;;;;;9.07;2.97;;;13.00;67.20;;;;;;5097552;28;20032;-80
2023/04/15 00:12:52;;;;;;;4.72;2.22;;;13.00;67.10;;;;;;5079251;28;20111;-81
2023/04/15 00:15:18;;;;;;;6.32;2.60;;;13.00;67.10;;;;;;5079170;28;20326;-80
2023/04/15 00:17:44;;;;;;;8.60;2.55;;;13.00;67.30;;;;;;5079398;28;20028;-80
2023/04/15 00:20:10;;;;;;;4.88;2.40;;;12.90;67.60;;;;;;5079300;28;20030;-80
2023/04/15 00:22:36;;;;;;;5.78;2.70;;;12.80;67.70;;;;;;5097273;28;20035;-80
2023/04/15 00:25:02;;;;;;;8.00;2.70;;;12.80;68.10;;;;;;5097236;28;20028;-80
2023/04/15 00:27:28;;;;;;;7.70;2.70;;;12.80;68.20;;;;;;5062874;28;20032;-80
2023/04/15 00:29:55;;;;;;;4.47;2.50;;;12.80;68.40;;;;;;5097149;28;20024;-80
2023/04/15 00:32:20;;;;;;;5.90;2.75;;;12.80;68.50;;;;;;5097161;28;20077;-80
2023/04/15 00:34:46;;;;;;;6.30;2.60;;;12.70;68.40;;;;;;5079283;28;20032;-80
2023/04/15 00:37:12;;;;;;;5.38;2.20;;;12.80;68.70;;;;;;5097104;28;20036;-80
2023/04/15 00:39:38;;;;;;;5.40;2.40;;;12.70;68.90;;;;;;5062311;28;20541;-80
2023/04/15 00:42:04;;;;;;;4.55;2.40;;;12.70;69.30;;;;;;5096943;28;20081;-80
2023/04/15 00:44:30;;;;;;;5.85;3.05;;;12.70;69.20;;;;;;5078642;28;20464;-80
2023/04/15 00:46:56;;;;;;;5.65;2.67;;;12.70;69.20;;;;;;5078998;28;20039;-80
2023/04/15 00:49:22;;;;;;;5.35;2.50;;;12.70;69.50;;;;;;5078592;28;20028;-81
2023/04/15 00:51:48;;;;;;;6.50;2.53;;;12.70;69.60;;;;;;5096457;28;20107;-79
2023/04/15 00:54:15;;;;;;;4.07;2.33;;;12.70;69.70;;;;;;5077598;28;20168;-80
2023/04/15 00:56:41;;;;;;;4.88;2.45;;;12.60;70.20;;;;;;5096569;28;20139;-80
2023/04/15 00:59:08;;;;;;;6.35;3.72;;;12.50;70.30;;;;;;5078979;28;20081;-80
2023/04/15 01:01:35;;;;;;;6.90;3.58;;;12.40;71.00;;;;;;5078118;28;20036;-80
2023/04/15 01:04:01;;;;;;;8.52;3.00;;;12.20;71.80;;;;;;5078773;28;20039;-80
2023/04/15 01:06:28;;;;;;;5.45;3.10;;;12.10;72.50;;;;;;5096366;28;20031;-81
2023/04/15 01:08:54;;;;;;;4.13;2.60;;;12.00;73.10;;;;;;5078532;28;20035;-80
2023/04/15 01:11:22;;;;;;;5.95;3.10;;;12.00;73.10;;;;;;5078846;28;20051;-80
2023/04/15 01:13:49;;;;;;;8.80;3.60;;;12.00;73.40;;;;;;5096524;28;20025;-80
2023/04/15 01:16:16;;;;;;;7.93;3.28;;;12.10;73.50;;;;;;5061719;28;20122;-80
2023/04/15 01:18:42;;;;;;;5.60;2.63;;;12.10;73.50;;;;;;5061120;28;20028;-80
2023/04/15 01:21:07;;;;;;;6.72;2.95;;;12.10;73.60;;;;;;5078310;28;20024;-80
2023/04/15 01:23:39;;;;;;;7.65;3.22;;;12.20;73.50;;;;;;5096190;28;20353;-80
2023/04/15 01:26:09;;;;;;;7.82;3.40;;;12.20;73.50;;;;;;5096409;28;20073;-80
2023/04/15 01:28:36;;;;;;;6.28;3.38;;;12.20;73.70;;;;;;5095747;28;20032;-80
2023/04/15 01:31:13;;;;;;;3.92;2.85;;;12.20;73.70;;;;;;5078742;28;20107;-80
2023/04/15 01:33:42;;;;;;;5.22;3.00;;;12.20;73.90;;;;;;5096044;28;20050;-79
2023/04/15 01:36:09;;;;;;;4.97;3.53;;;12.30;74.10;;;;;;5095868;28;20058;-79
2023/04/15 01:38:36;;;;;;;6.05;3.60;;;12.30;74.00;;;;;;5077705;28;20033;-79
2023/04/15 01:41:06;;;;;;;5.93;3.00;;;12.20;74.60;;;;;;5095824;28;20024;-79
2023/04/15 01:43:33;;;;;;;7.70;3.65;;;12.00;74.70;;;;;;5095524;28;20032;-79
2023/04/15 01:45:59;;;;;;;5.63;3.10;;;12.10;75.30;;;;;;5044445;28;20036;-79
2023/04/15 01:48:25;;;;;;;5.15;2.97;;;12.10;75.20;;;;;;5061350;28;20042;-79
2023/04/15 01:50:53;;;;;;;7.03;3.65;;;12.10;75.10;;;;;;5077604;28;20035;-79
2023/04/15 01:53:19;;;;;;;5.50;3.65;;;12.10;75.50;;;;;;5078193;28;20035;-79
2023/04/15 01:55:45;;;;;;;6.85;3.55;;;12.00;76.30;;;;;;5061438;28;20125;-79
2023/04/15 01:58:11;;;;;;;6.32;3.65;;;12.00;75.90;;;;;;5095825;28;20123;-79
2023/04/15 02:00:36;;;;;;;5.90;3.50;;;11.90;75.90;;;;;;5095714;28;20055;-79
2023/04/15 02:03:02;;;;;;;4.45;3.10;;;11.90;76.30;;;;;;5077220;28;20028;-79
2023/04/15 02:05:28;;;;;;;5.43;3.78;;;11.90;76.50;;;;;;5077136;28;20043;-79
2023/04/15 02:07:54;;;;;;;7.97;3.15;;;11.90;76.60;;;;;;5060258;28;20036;-79
2023/04/15 02:10:20;;;;;;;6.97;3.67;;;11.90;77.50;;;;;;5077028;28;20138;-79
2023/04/15 02:12:45;;;;;;;5.45;3.47;;;11.90;76.80;;;;;;5060881;28;20035;-79
2023/04/15 02:15:11;;;;;;;7.18;3.58;;;11.90;76.80;;;;;;5095409;28;20413;-79
2023/04/15 02:17:37;;;;;;;6.22;3.50;;;11.90;77.00;;;;;;5076872;28;20039;-79
2023/04/15 02:20:07;;;;;;;9.50;3.88;;;11.90;77.00;;;;;;5076885;28;20070;-79
2023/04/15 02:22:33;;;;;;;6.63;3.30;;;11.90;77.00;;;;;;5095288;28;20126;-79
2023/04/15 02:24:59;;;;;;;6.55;4.30;;;11.90;77.20;;;;;;5095431;28;20032;-79
2023/04/15 02:27:25;;;;;;;5.03;3.08;;;11.90;77.40;;;;;;5076865;28;20046;-79
2023/04/15 02:29:51;;;;;;;6.72;3.80;;;11.80;78.10;;;;;;5060141;28;20060;-79
2023/04/15 02:32:17;;;;;;;5.88;3.60;;;11.80;77.60;;;;;;5077029;28;20028;-79
2023/04/15 02:34:43;;;;;;;4.80;3.40;;;11.80;77.90;;;;;;5094984;28;20030;-79
2023/04/15 02:37:10;;;;;;;5.93;3.50;;;11.80;78.00;;;;;;5076589;28;20028;-79
2023/04/15 02:39:35;;;;;;;6.60;3.85;;;11.80;78.00;;;;;;5076459;28;20031;-79
2023/04/15 02:42:01;;;;;;;7.38;4.07;;;11.80;78.10;;;;;;5094911;28;20377;-79
2023/04/15 02:44:27;;;;;;;8.23;3.63;;;11.80;78.00;;;;;;5075998;28;20027;-79
2023/04/15 02:46:53;;;;;;;5.60;3.45;;;11.80;78.40;;;;;;5094204;28;20039;-79
2023/04/15 02:49:20;;;;;;;5.50;3.53;;;11.70;78.70;;;;;;5076265;28;20040;-79
2023/04/15 02:51:50;;;;;;;5.78;3.80;;;11.70;79.50;;;;;;5076259;28;20484;-79
2023/04/15 02:54:19;;;;;;;5.13;3.97;;;11.70;79.10;;;;;;5094386;28;20033;-79
2023/04/15 02:56:44;;;;;;;5.57;3.97;;;11.50;79.70;;;;;;5075963;28;20070;-79
2023/04/15 02:59:11;;;;;;;6.47;3.45;;;11.40;80.10;;;;;;5076314;28;20040;-79
2023/04/15 03:01:37;;;;;;;7.18;3.80;;;11.40;80.50;;;;;;5094032;28;20112;-79
2023/04/15 03:04:03;;;;;;;7.10;4.00;;;11.30;81.00;;;;;;5076393;28;20067;-79
2023/04/15 03:06:29;;;;;;;8.57;4.28;;;11.30;81.30;;;;;;5076323;28;20570;-79
2023/04/15 03:08:55;;;;;;;5.63;3.00;;;11.30;81.60;;;;;;5059503;28;20388;-79
2023/04/15 03:11:21;;;;;;;8.68;3.95;;;11.30;81.90;;;;;;5060267;28;20032;-79
2023/04/15 03:13:47;;;;;;;6.20;3.38;;;11.40;81.70;;;;;;5076209;28;20416;-79
2023/04/15 03:16:13;;;;;;;4.82;3.47;;;11.50;81.50;;;;;;5075807;28;20028;-79
2023/04/15 03:18:38;;;;;;;7.40;3.63;;;11.60;81.20;;;;;;5075802;28;20471;-80
2023/04/15 03:21:05;;;;;;;6.88;4.40;;;11.60;81.00;;;;;;5075871;28;20028;-80
2023/04/15 03:23:31;;;;;;;11.48;4.80;;;11.60;81.10;;;;;;5059291;28;20032;-80
2023/04/15 03:25:57;;;;;;;5.95;4.20;;;11.50;81.60;;;;;;5075741;28;20479;-80
2023/04/15 03:28:23;;;;;;;6.45;4.25;;;11.30;82.30;;;;;;5075987;28;20043;-80
2023/04/15 03:30:49;;;;;;;10.35;4.90;;;11.30;82.70;;;;;;5093565;28;20028;-79
2023/04/15 03:33:15;;;;;;;9.57;4.80;;;11.30;83.20;;;;;;5075672;28;20111;-80
2023/04/15 03:35:41;;;;;;;5.68;3.58;;;11.20;83.70;;;;;;5059742;28;20028;-80
2023/04/15 03:38:06;;;;;;;5.53;3.78;;;11.20;84.00;;;;;;5042761;28;20491;-80
2023/04/15 03:40:32;;;;;;;10.60;4.90;;;11.30;84.00;;;;;;5059760;28;20405;-80
2023/04/15 03:42:57;;;;;;;5.88;4.40;;;11.30;84.00;;;;;;5094086;28;20029;-80
2023/04/15 03:45:23;;;;;;;5.88;4.57;;;11.20;84.30;;;;;;5075835;28;20020;-80
2023/04/15 03:47:49;;;;;;;6.47;4.90;;;11.20;84.70;;;;;;5075534;28;20081;-80
2023/04/15 03:50:15;;;;;;;8.90;5.60;;;11.20;85.00;;;;;;5075580;28;20032;-80
2023/04/15 03:52:40;;;;;;;6.60;4.57;;;11.10;85.40;;;;;;5059451;28;20032;-80
2023/04/15 03:55:07;;;;;;;5.75;4.35;;;11.00;85.90;;;;;;5059385;28;20081;-80
2023/04/15 03:57:36;;;;;;;7.40;4.75;;;11.00;86.10;;;;;;5075795;28;20438;-80
2023/04/15 04:00:03;;;;;;;6.60;4.78;;;11.10;86.30;;;;;;5075228;28;20028;-80
2023/04/15 04:02:29;;;;;;;8.82;4.90;;;11.10;86.50;;;;;;5075421;28;20395;-80
2023/04/15 04:04:55;;;;;;;7.07;4.22;;;11.10;86.50;;;;;;5058656;28;20035;-80
2023/04/15 04:07:23;;;;;;;7.07;4.15;;;11.10;86.50;;;;;;5075283;28;20131;-79
2023/04/15 04:09:49;;;;;;;7.50;4.63;;;11.20;86.40;;;;;;5075421;28;20396;-80
2023/04/15 04:12:14;;;;;;;6.07;4.50;;;11.30;86.20;;;;;;5075961;28;20028;-80
2023/04/15 04:14:40;;;;;;;4.68;3.47;;;11.40;86.10;;;;;;5093458;28;20024;-79
2023/04/15 04:17:06;;;;;;;7.43;4.80;;;11.30;86.10;;;;;;5075420;28;20114;-80
2023/04/15 04:19:31;;;;;;;4.90;3.88;;;11.40;86.30;;;;;;5093453;28;20039;-80
2023/04/15 04:21:57;;;;;;;5.25;3.50;;;11.40;86.20;;;;;;5093653;28;20032;-79
2023/04/15 04:24:23;;;;;;;7.07;4.28;;;11.50;86.20;;;;;;5075478;28;20117;-80
2023/04/15 04:26:48;;;;;;;8.77;5.25;;;11.50;85.90;;;;;;5093758;28;20050;-79
2023/04/15 04:29:14;;;;;;;8.43;4.95;;;11.40;86.00;;;;;;5044646;28;20039;-79
2023/04/15 04:31:40;;;;;;;6.57;5.05;;;11.20;86.80;;;;;;5078522;28;20036;-79
2023/04/15 04:34:06;;;;;;;8.55;5.50;;;11.00;87.90;;;;;;5062308;28;20082;-80
2023/04/15 04:36:32;;;;;;;11.60;6.75;;;10.70;89.00;;;;;;5062250;28;20119;-80
2023/04/15 04:38:57;;;;;;;10.98;6.38;;;10.60;90.20;;;;;;5045807;28;20124;-80
2023/04/15 04:41:23;;;;;;;8.48;5.82;;;10.40;90.80;;;;;;5078881;28;20032;-80
2023/04/15 04:43:49;;;;;;;7.53;5.57;;;10.10;91.50;;;;;;5045360;28;20028;-79
2023/04/15 04:46:14;;;;;;;9.55;6.18;;;10.00;92.10;;;;;;5078693;28;20049;-79
2023/04/15 04:48:40;;;;;;;10.60;6.75;;;10.00;92.60;;;;;;5062578;28;20032;-79
2023/04/15 04:51:06;;;;;;;8.23;6.40;;;9.90;93.00;;;;;;5061950;28;20028;-80
2023/04/15 04:53:32;;;;;;;14.27;7.22;;;9.70;93.70;;;;;;5061950;28;20029;-80
2023/04/15 04:55:58;;;;;;;9.63;6.57;;;9.70;94.10;;;;;;5078705;28;20423;-80
2023/04/15 04:58:24;;;;;;;10.82;7.05;;;9.70;94.60;;;;;;5061827;28;20052;-80
2023/04/15 05:00:49;;;;;;;9.20;6.28;;;9.70;94.90;;;;;;5078374;28;20032;-80
2023/04/15 05:03:15;;;;;;;8.25;6.38;;;9.60;95.30;;;;;;5078324;28;20024;-80
2023/04/15 05:05:41;;;;;;;9.13;6.80;;;9.60;95.70;;;;;;5078642;28;20119;-80
2023/04/15 05:08:06;;;;;;;7.50;5.90;;;9.60;96.00;;;;;;5061557;28;20032;-79
2023/04/15 05:10:32;;;;;;;13.10;8.10;;;9.70;96.10;;;;;;5078661;28;20468;-80
2023/04/15 05:12:58;;;;;;;8.82;7.15;;;9.70;96.10;;;;;;5061361;28;20460;-80
2023/04/15 05:15:24;;;;;;;10.05;6.70;;;9.60;96.30;;;;;;5061461;28;20040;-80
2023/04/15 05:17:50;;;;;;;9.70;6.80;;;9.60;96.60;;;;;;5077957;28;20032;-80
2023/04/15 05:20:16;;;;;;;11.27;7.78;;;9.60;96.90;;;;;;5078231;28;20060;-79
2023/04/15 05:22:42;;;;;;;12.63;7.63;;;9.50;97.20;;;;;;5078116;28;20032;-80
2023/04/15 05:25:08;;;;;;;8.82;6.40;;;9.30;98.00;;;;;;5078290;28;20082;-80
2023/04/15 05:27:34;;;;;;;10.93;7.55;;;9.30;98.30;;;;;;5077689;28;20029;-79
2023/04/15 05:30:00;;;;;;;10.43;8.20;;;9.50;98.30;;;;;;5078478;28;20040;-79
2023/04/15 05:32:26;;;;;;;9.55;7.35;;;9.50;98.50;;;;;;5077709;28;20129;-81
2023/04/15 05:34:51;;;;;;;11.25;7.40;;;9.50;98.90;;;;;;5095724;28;20036;-80
2023/04/15 05:37:19;;;;;;;10.32;7.55;;;9.50;99.00;;;;;;5077614;28;20024;-79
2023/04/15 05:39:45;;;;;;;11.63;7.80;;;9.50;99.30;;;;;;5061397;28;20376;-80
2023/04/15 05:42:11;;;;;;;9.95;7.20;;;9.40;99.50;;;;;;5077585;28;20036;-79
2023/04/15 05:44:37;;;;;;;12.52;7.88;;;9.40;99.60;;;;;;5077421;28;20028;-80
2023/04/15 05:47:02;;;;;;;12.70;8.88;;;9.40;99.90;;;;;;5095842;28;20067;-80
2023/04/15 05:49:28;;;;;;;11.10;7.93;;;9.30;99.90;;;;;;5061226;28;20036;-79
2023/04/15 05:51:54;;;;;;;12.27;8.15;;;9.10;99.90;;;;;;5060807;28;20456;-79
2023/04/15 05:54:22;;;;;;;13.38;8.18;;;9.30;99.90;;;;;;5095698;28;20060;-79
2023/04/15 05:56:47;;;;;;;12.55;8.68;;;9.30;99.90;;;;;;5044281;28;20048;-79
2023/04/15 05:59:13;;;;;;;12.32;8.50;;;9.30;99.90;;;;;;5077223;28;20039;-80
2023/04/15 06:01:39;;;;;;;12.65;8.82;;;9.30;99.90;;;;;;5077111;28;20031;-79
2023/04/15 06:04:05;;;;;;;12.27;8.15;;;9.50;99.90;;;;;;5076948;28;20031;-80
2023/04/15 06:06:31;;;;;;;13.00;9.13;;;9.60;99.90;;;;;;5077222;28;20028;-80
2023/04/15 06:08:57;;;;;;;14.15;9.40;;;9.70;99.90;;;;;;5095558;28;20039;-80
2023/04/15 06:11:23;;;;;;;13.25;9.82;;;9.60;99.90;;;;;;5077587;28;20024;-79
2023/04/15 06:13:49;;;;;;;12.70;10.07;;;9.60;99.90;;;;;;5095451;28;20050;-79
2023/04/15 06:16:15;;;;;;;14.00;8.90;;;9.60;99.90;;;;;;5077023;28;20485;-79
2023/04/15 06:18:40;;;;;;;15.23;8.52;;;9.60;99.90;;;;;;5060556;28;20419;-79
2023/04/15 06:21:06;;;;;;;9.57;7.95;;;9.70;99.90;;;;;;5077040;28;20089;-79
2023/04/15 06:23:35;;;;;;;13.60;9.00;;;9.80;99.90;;;;;;5077034;28;20024;-80
2023/04/15 06:26:02;;;;;;;10.32;7.55;;;9.90;99.90;;;;;;5076608;28;20476;-78
2023/04/15 06:28:28;;;;;;;12.60;9.40;;;9.80;99.90;;;;;;5094934;28;20030;-80
2023/04/15 06:30:54;;;;;;;14.23;8.40;;;9.90;99.90;;;;;;5076574;28;20119;-80
2023/04/15 06:33:20;;;;;;;10.02;8.50;;;10.00;99.90;;;;;;5077090;28;20063;-79
2023/04/15 06:35:46;;;;;;;10.45;8.30;;;10.10;99.90;;;;;;5059940;28;20436;-80
2023/04/15 06:38:12;;;;;;;9.70;7.03;;;10.10;99.90;;;;;;5077068;28;20090;-79
2023/04/15 06:40:37;;;;;;;12.05;7.70;;;10.10;99.90;;;;;;5094981;28;20040;-80
2023/04/15 06:43:03;;;;;;;8.95;7.22;;;10.10;99.90;;;;;;5077292;28;20032;-80
2023/04/15 06:45:30;;;;;;;8.13;6.45;;;10.10;99.90;;;;;;5043376;28;20032;-80
2023/04/15 06:47:56;;;;;;;9.73;6.50;;;9.90;99.90;;;;;;5094530;28;20035;-80
2023/04/15 06:50:21;;;;;;;10.27;6.82;;;10.00;99.90;;;;;;5042853;28;20032;-80
2023/04/15 06:52:47;;;;;;;10.63;7.57;;;10.20;99.90;;;;;;5075989;28;20178;-79
2023/04/15 06:55:13;;;;;;;10.27;7.50;;;10.30;99.60;;;;;;5076291;28;20025;-79
2023/04/15 06:57:39;;;;;;;11.25;8.70;;;10.10;99.80;;;;;;5094175;28;20100;-79
2023/04/15 07:00:06;;;;;;;11.13;8.43;;;10.00;99.90;;;;;;5094569;28;20106;-80
2023/04/15 07:02:32;;;;;;;9.48;7.75;;;10.00;99.90;;;;;;5076096;28;20028;-80
2023/04/15 07:04:57;;;;;;;13.38;9.15;;;10.10;99.90;;;;;;5076025;28;20020;-80
2023/04/15 07:07:24;;;;;;;13.95;9.57;;;10.30;99.90;;;;;;5059375;28;20039;-79
2023/04/15 07:09:51;;;;;;;9.30;7.50;;;10.30;99.70;;;;;;5059449;28;20042;-80
2023/04/15 07:12:16;;;;;;;12.25;8.50;;;10.30;99.60;;;;;;5060035;28;20028;-80
2023/04/15 07:14:42;;;;;;;9.65;7.68;;;10.20;99.40;;;;;;5094103;28;20038;-79
2023/04/15 07:17:08;;;;;;;12.13;8.23;;;10.10;99.90;;;;;;5042864;28;20032;-79
2023/04/15 07:19:34;;;;;;;11.77;8.55;;;10.10;99.80;;;;;;5076340;28;20028;-79
2023/04/15 07:22:00;;;;;;;9.57;7.22;;;10.00;99.90;;;;;;5094050;28;20024;-79
2023/04/15 07:24:26;;;;;;;9.18;7.32;;;9.90;99.90;;;;;;5059643;28;20035;-80
2023/04/15 07:26:58;;;;;;;8.63;6.72;;;10.00;99.90;;;;;;5059067;28;20028;-79
2023/04/15 07:29:24;;;;;;;14.98;9.27;;;10.10;99.90;;;;;;5076760;28;20039;-79
2023/04/15 07:31:50;;;;;;;11.63;8.57;;;10.20;99.80;;;;;;5076687;28;20441;-80
2023/04/15 07:34:16;;;;;;;13.38;8.57;;;10.00;99.90;;;;;;5059019;28;20036;-79
2023/04/15 07:36:42;;;;;;;12.65;8.70;;;10.00;99.90;;;;;;5075761;28;20031;-79
2023/04/15 07:39:07;;;;;;;11.00;7.90;;;9.90;99.90;;;;;;5059313;28;20475;-79
2023/04/15 07:41:33;;;;;;;11.68;8.13;;;9.90;99.90;;;;;;5093958;28;20060;-80
2023/04/15 07:43:59;;;;;;;9.70;7.50;;;10.00;99.90;;;;;;5059031;28;20031;-80
2023/04/15 07:46:26;;;;;;;8.57;6.28;;;10.00;99.90;;;;;;5075500;28;20104;-79
2023/04/15 07:48:52;;;;;;;9.10;6.97;;;10.10;99.90;;;;;;5076339;28;20047;-79
2023/04/15 07:51:20;;;;;;;10.30;6.85;;;10.30;99.90;;;;;;5043054;28;20047;-78
2023/04/15 07:53:46;;;;;;;9.65;7.07;;;10.30;99.60;;;;;;5076141;28;20032;-79
2023/04/15 07:56:12;;;;;;;9.15;6.97;;;10.30;99.90;;;;;;5075629;28;20496;-79
2023/04/15 07:58:37;;;;;;;10.25;6.90;;;10.40;99.80;;;;;;5058630;28;20024;-79
2023/04/15 08:01:04;;;;;;;10.20;6.40;;;10.50;99.60;;;;;;5075924;28;20109;-79
2023/04/15 08:03:30;;;;;;;8.98;7.07;;;10.70;99.40;;;;;;5045917;28;20460;-79
2023/04/15 08:05:56;;;;;;;10.88;7.18;;;10.80;98.90;;;;;;5079668;28;20089;-79
2023/04/15 08:08:22;;;;;;;10.18;7.43;;;10.80;98.90;;;;;;5097531;28;20036;-79
2023/04/15 08:10:47;;;;;;;10.30;7.03;;;10.80;98.90;;;;;;5062957;28;20028;-78
2023/04/15 08:13:13;;;;;;;6.90;6.15;;;10.80;98.70;;;;;;5079511;28;20051;-79
2023/04/15 08:15:39;;;;;;;8.70;6.05;;;10.80;98.80;;;;;;5062354;28;20036;-79
2023/04/15 08:18:05;;;;;;;8.15;5.15;;;10.80;98.70;;;;;;5097518;28;20034;-79
2023/04/15 08:20:31;;;;;;;7.35;5.82;;;10.90;98.70;;;;;;5079404;28;20082;-78
2023/04/15 08:22:57;;;;;;;7.03;5.15;;;11.10;98.10;;;;;;5078966;28;20024;-79
2023/04/15 08:25:22;;;;;;;8.23;5.50;;;11.20;98.10;;;;;;5078808;28;20032;-79
2023/04/15 08:27:48;;;;;;;6.97;4.68;;;11.30;97.30;;;;;;5045606;28;20046;-79
2023/04/15 08:30:14;;;;;;;7.80;5.05;;;11.30;97.20;;;;;;5096895;28;20381;-79
2023/04/15 08:32:41;;;;;;;5.82;4.10;;;11.30;97.00;;;;;;5078997;28;20032;-79
2023/04/15 08:35:08;;;;;;;6.03;3.90;;;11.40;97.00;;;;;;5078556;28;20020;-79
2023/04/15 08:37:33;;;;;;;10.32;4.05;;;11.50;96.50;;;;;;5079225;28;20528;-80
2023/04/15 08:39:59;;;;;;;4.78;3.35;;;11.50;96.30;;;;;;5078898;28;20115;-79
2023/04/15 08:42:35;;;;;;;4.75;3.70;;;11.60;96.00;;;;;;5062083;28;20090;-80
2023/04/15 08:45:03;;;;;;;3.50;3.00;;;11.60;95.30;;;;;;5079365;28;20051;-79
2023/04/15 08:47:33;;;;;;;6.38;3.17;;;11.60;95.70;;;;;;5096879;28;20039;-79
2023/04/15 08:50:01;;;;;;;4.43;3.15;;;11.70;95.60;;;;;;5096994;28;20521;-79
2023/04/15 08:52:30;;;;;;;3.42;3.10;;;11.70;95.10;;;;;;5078752;28;20059;-80
2023/04/15 08:54:59;;;;;;;4.93;3.40;;;11.50;95.20;;;;;;5096792;28;20024;-80
2023/04/15 08:57:28;;;;;;;4.60;3.22;;;11.50;95.60;;;;;;5078095;28;20463;-80
2023/04/15 08:59:57;;;;;;;4.80;2.60;;;11.50;95.90;;;;;;5062428;28;20055;-81
2023/04/15 09:02:25;;;;;;;4.65;3.20;;;11.60;95.90;;;;;;5078372;28;20480;-80
2023/04/15 09:04:50;;;;;;;3.75;2.72;;;11.70;95.80;;;;;;5096506;28;20043;-79
2023/04/15 09:07:16;;;;;;;3.22;2.60;;;11.70;95.70;;;;;;5078259;28;20036;-80
2023/04/15 09:09:42;;;;;;;3.53;2.70;;;11.70;95.50;;;;;;5061954;28;20435;-80
2023/04/15 09:12:09;;;;;;;4.40;3.28;;;11.80;95.00;;;;;;5061603;28;20035;-79
2023/04/15 09:14:35;;;;;;;3.55;2.60;;;11.80;94.90;;;;;;5095751;28;20035;-79
2023/04/15 09:17:03;;;;;;;3.17;2.22;;;11.80;95.00;;;;;;5061480;28;20040;-80
2023/04/15 09:19:29;;;;;;;5.25;3.00;;;11.90;95.00;;;;;;5078470;28;20430;-80
2023/04/15 09:21:57;;;;;;;5.22;2.92;;;12.00;94.60;;;;;;5061629;28;20062;-81
2023/04/15 09:24:23;;;;;;;4.32;3.28;;;12.00;95.00;;;;;;5061385;28;20456;-80
2023/04/15 09:26:55;;;;;;;5.13;3.55;;;11.90;95.00;;;;;;5078366;28;20092;-80
2023/04/15 09:29:23;;;;;;;4.13;3.25;;;11.80;95.30;;;;;;5096440;28;20026;-80
2023/04/15 09:31:49;;;;;;;3.67;2.85;;;11.90;95.80;;;;;;5077810;28;20032;-80
2023/04/15 09:34:15;;;;;;;4.53;3.60;;;12.00;95.60;;;;;;5077974;28;20532;-80
2023/04/15 09:36:47;;;;;;;4.10;3.15;;;12.00;95.60;;;;;;5061051;28;20036;-80
2023/04/15 09:39:13;;;;;;;3.42;2.80;;;12.10;95.50;;;;;;5078288;28;20489;-80
2023/04/15 09:41:39;;;;;;;5.05;2.95;;;12.20;95.20;;;;;;5095772;28;20036;-80
2023/04/15 09:44:06;;;;;;;3.35;2.58;;;12.30;95.10;;;;;;5096550;28;20054;-80
2023/04/15 09:46:43;;;;;;;5.50;3.22;;;12.50;94.80;;;;;;5060743;28;20508;-81
2023/04/15 09:49:10;;;;;;;5.90;3.10;;;12.50;94.60;;;;;;5077485;28;20028;-80
2023/04/15 09:51:36;;;;;;;3.72;3.28;;;12.50;94.20;;;;;;5077477;28;20476;-80
2023/04/15 09:54:02;;;;;;;6.00;3.30;;;12.50;94.80;;;;;;5078135;28;20024;-80
2023/04/15 09:56:37;;;;;;;4.07;2.58;;;12.50;94.60;;;;;;5077038;28;20063;-79
2023/04/15 09:59:04;;;;;;;2.88;2.10;;;12.60;94.20;;;;;;5077807;28;20102;-81
2023/04/15 10:01:31;;;;;;;4.68;2.67;;;12.70;93.40;;;;;;5095503;28;20024;-79
2023/04/15 10:03:57;;;;;;;5.55;2.88;;;12.60;93.60;;;;;;5060434;28;20078;-79
2023/04/15 10:06:26;;;;;;;2.40;2.00;;;12.60;94.00;;;;;;5076958;28;20039;-80
2023/04/15 10:08:53;;;;;;;4.75;2.35;;;12.70;94.20;;;;;;5060402;28;20032;-80
2023/04/15 10:11:20;;;;;;;4.15;2.90;;;12.90;94.00;;;;;;5060342;28;20043;-80
2023/04/15 10:13:48;;;;;;;5.78;2.80;;;13.20;93.00;;;;;;5060309;28;20035;-79
2023/04/15 10:16:15;;;;;;;3.88;2.53;;;13.10;93.20;;;;;;5095422;28;20020;-80
2023/04/15 10:18:50;;;;;;;3.42;2.42;;;13.20;93.20;;;;;;5095488;28;20031;-80
2023/04/15 10:21:17;;;;;;;2.55;2.30;;;13.40;93.50;;;;;;5077420;28;20028;-78
2023/04/15 10:23:44;;;;;;;3.88;2.05;;;13.80;92.90;;;;;;5094911;28;20410;-78
2023/04/15 10:26:11;;;;;;;3.65;2.60;;;14.00;92.50;;;;;;5075621;28;20024;-79
2023/04/15 10:28:37;;;;;;;3.45;2.03;;;14.30;91.80;;;;;;5076722;28;20036;-79
2023/04/15 10:31:04;;;;;;;3.97;2.10;;;14.50;90.90;;;;;;5060121;28;20029;-79
2023/04/15 10:33:31;;;;;;;2.38;2.00;;;14.60;89.70;;;;;;5043582;28;20102;-80
2023/04/15 10:35:57;;;;;;;2.17;1.52;;;14.50;89.20;;;;;;5076185;28;20149;-80
2023/04/15 10:38:36;;;;;;;3.72;2.13;;;14.50;89.90;;;;;;5094532;28;20089;-79
2023/04/15 10:41:21;;;;;;;3.03;2.30;;;14.60;90.10;;;;;;5076637;28;20482;-80
2023/04/15 10:43:51;;;;;;;2.40;1.98;;;14.40;88.00;;;;;;5094538;28;20024;-79
2023/04/15 10:46:39;;;;;;;4.10;2.50;;;14.20;89.10;;;;;;5076811;28;20024;-79
2023/04/15 10:49:12;;;;;;;3.22;2.22;;;14.10;90.20;;;;;;5076283;28;20031;-80
2023/04/15 10:51:43;;;;;;;3.40;1.63;;;14.10;90.10;;;;;;5060382;28;20024;-79
2023/04/15 10:54:25;;;;;;;2.50;1.60;;;14.20;89.90;;;;;;5076055;28;20028;-79
2023/04/15 10:57:20;;;;;;;4.88;1.50;;;14.10;87.90;;;;;;5094241;28;20048;-79
2023/04/15 10:59:59;;;;;;;3.58;1.70;;;14.00;87.60;;;;;;5082692;28;20032;-79
2023/04/15 11:02:42;;;;;;;4.78;2.60;;;14.20;87.50;;;;;;5076739;28;20024;-80
2023/04/15 11:05:09;;;;;;;4.68;2.38;;;14.20;87.90;;;;;;5076338;28;20063;-80
2023/04/15 11:07:45;;;;;;;2.33;1.77;;;14.20;87.30;;;;;;5094101;28;20040;-79
2023/04/15 11:10:17;;;;;;;3.92;2.30;;;14.10;88.70;;;;;;5076520;28;20357;-79
2023/04/15 11:12:44;;;;;;;1.75;1.60;;;14.20;88.30;;;;;;5094181;28;20107;-79
2023/04/15 11:15:41;;;;;;;1.95;1.60;;;14.20;89.00;;;;;;5094052;28;20032;-80
2023/04/15 11:18:15;;;;;;;2.45;1.33;;;14.40;87.50;;;;;;5094028;28;20051;-79
2023/04/15 11:20:46;;;;;;;4.78;1.70;;;14.30;86.80;;;;;;5076419;28;20032;-80
2023/04/15 11:23:13;;;;;;;3.45;1.70;;;14.10;84.40;;;;;;5076767;28;20032;-79
2023/04/15 11:25:39;;;;;;;4.05;1.30;;;13.80;86.80;;;;;;5093831;28;20031;-79
2023/04/15 11:28:06;;;;;;;3.65;1.50;;;13.80;87.60;;;;;;5059302;28;20093;-79
2023/04/15 11:30:34;;;;;;;2.95;1.67;;;14.00;86.70;;;;;;5075821;28;20051;-79
2023/04/15 11:33:02;;;;;;;6.10;1.40;;;14.10;85.70;;;;;;5075822;28;20063;-79
2023/04/15 11:35:29;;;;;;;1.55;0.90;;;14.00;84.60;;;;;;5075443;28;20059;-79
2023/04/15 11:37:55;;;;;;;2.15;0.95;;;14.00;86.10;;;;;;5042023;28;20035;-79
2023/04/15 11:40:28;;;;;;;2.40;1.30;;;14.10;86.60;;;;;;5059489;28;20024;-79
2023/04/15 11:43:11;;;;;;;2.63;1.00;;;14.20;85.80;;;;;;5076078;28;20032;-79
2023/04/15 11:45:47;;;;;;;1.00;0.50;;;14.30;85.10;;;;;;5075771;28;20032;-79
2023/04/15 11:48:13;;;;;;;2.00;0.60;;;14.60;85.10;;;;;;5093616;28;20043;-80
2023/04/15 11:50:40;;;;;;;3.10;1.05;;;15.10;83.40;;;;;;5075325;28;20418;-78
2023/04/15 11:53:07;;;;;;;1.30;0.68;;;15.20;82.10;;;;;;5093386;28;20070;-79
2023/04/15 11:55:45;;;;;;;1.35;0.68;;;15.20;81.30;;;;;;5093813;28;20028;-80
2023/04/15 11:58:17;;;;;;;1.92;0.52;;;15.20;78.50;;;;;;5093601;28;20131;-79
2023/04/15 12:00:57;;;;;;;3.13;0.57;;;15.30;79.60;;;;;;5094038;28;20024;-79
2023/04/15 12:03:41;;;;;;;2.83;0.40;;;15.40;80.30;;;;;;5058346;28;20059;-80
2023/04/15 12:06:20;;;;;;;2.30;0.70;;;15.40;80.00;;;;;;5093689;28;20089;-79
2023/04/15 12:08:59;;;;;;;2.13;0.40;;;15.50;79.60;;;;;;5075773;28;20050;-79
2023/04/15 12:11:47;;;;;;;1.05;0.45;;;15.50;78.50;;;;;;5075347;28;20028;-79
2023/04/15 12:14:35;;;;;;;4.50;0.50;;;15.50;78.00;;;;;;5093435;28;20060;-79
2023/04/15 12:17:03;;;;;;;2.33;0.50;;;15.40;77.50;;;;;;5074745;28;20063;-79
2023/04/15 12:19:37;;;;;;;1.17;0.30;;;15.50;77.70;;;;;;5058534;28;20032;-79
2023/04/15 12:22:09;;;;;;;2.17;0.40;;;15.40;78.50;;;;;;5074998;28;20124;-79
2023/04/15 12:24:36;;;;;;;1.92;0.35;;;15.60;78.00;;;;;;5093203;28;20020;-79
2023/04/15 12:27:04;;;;;;;1.10;0.50;;;15.70;78.60;;;;;;5075401;28;20060;-80
2023/04/15 12:29:30;;;;;;;1.30;0.40;;;15.90;77.60;;;;;;5093483;28;20077;-79
2023/04/15 12:31:57;;;;;;;2.28;0.43;;;15.80;77.40;;;;;;5058899;28;20040;-80
2023/04/15 12:34:49;;;;;;;2.20;0.50;;;15.90;78.40;;;;;;5093181;28;20106;-79
2023/04/15 12:37:15;;;;;;;1.17;0.57;;;15.80;77.20;;;;;;5064200;28;20048;-79
2023/04/15 12:39:43;;;;;;;1.25;0.30;;;16.00;76.00;;;;;;5093436;28;20028;-80
2023/04/15 12:42:09;;;;;;;2.05;0.70;;;16.10;76.20;;;;;;5093033;28;20111;-79
2023/04/15 12:44:36;;;;;;;1.27;0.52;;;16.20;76.10;;;;;;5093143;28;20028;-78
2023/04/15 12:47:02;;;;;;;3.95;0.70;;;16.10;75.60;;;;;;5075050;28;20061;-79